createdAt,value
2019-03-01T00:06:37.252Z,9.83
2019-03-01T00:11:18.249Z,9.43
2019-03-01T00:16:00.790Z,7.37
2019-03-01T00:20:43.331Z,7.37
2019-03-01T00:25:23.958Z,7.33
2019-03-01T00:30:04.667Z,7.13
2019-03-01T00:34:45.323Z,6.57
2019-03-01T00:39:26.022Z,6.53
2019-03-01T00:44:08.649Z,6.97
2019-03-01T00:48:29.412Z,7.63
2019-03-01T00:52:50.248Z,6.83
2019-03-01T00:57:11.167Z,7.03
2019-03-01T01:01:31.930Z,7.07
2019-03-01T01:05:52.778Z,7.63
2019-03-01T01:10:13.622Z,8.13
2019-03-01T01:14:34.478Z,7.17
2019-03-01T01:18:55.221Z,8.33
2019-03-01T01:23:15.974Z,9.50
2019-03-01T01:27:36.714Z,8.10
2019-03-01T01:31:57.477Z,9.60
2019-03-01T01:36:18.324Z,8.33
2019-03-01T01:40:32.688Z,8.13
2019-03-01T01:44:47.396Z,9.27
2019-03-01T01:49:01.909Z,10.07
2019-03-01T01:53:16.556Z,8.33
2019-03-01T01:57:30.988Z,10.03
2019-03-01T02:01:45.611Z,8.87
2019-03-01T02:06:00.323Z,7.30
2019-03-01T02:10:14.111Z,7.27
2019-03-01T02:14:28.849Z,8.67
2019-03-01T02:18:43.141Z,7.73
2019-03-01T02:22:57.847Z,6.67
2019-03-01T02:27:11.844Z,6.33
2019-03-01T02:31:26.496Z,6.23
2019-03-01T02:35:41.093Z,7.60
2019-03-01T02:39:54.842Z,6.53
2019-03-01T02:44:09.542Z,7.20
2019-03-01T02:48:24.341Z,6.50
2019-03-01T02:52:41.589Z,6.67
2019-03-01T02:56:55.438Z,7.80
2019-03-01T03:01:09.233Z,5.87
2019-03-01T03:05:24.049Z,6.13
2019-03-01T03:09:38.814Z,6.77
2019-03-01T03:13:53.599Z,5.93
2019-03-01T03:18:07.667Z,6.67
2019-03-01T03:22:22.153Z,8.40
2019-03-01T03:26:36.462Z,6.30
2019-03-01T03:30:51.013Z,7.10
2019-03-01T03:35:05.632Z,6.93
2019-03-01T03:39:20.243Z,7.00
2019-03-01T03:43:34.571Z,95.80
2019-03-01T03:47:48.989Z,22.23
2019-03-01T03:52:03.692Z,7.37
2019-03-01T03:56:04.731Z,6.80
2019-03-01T04:00:25.571Z,6.07
2019-03-01T04:04:46.534Z,6.83
2019-03-01T04:08:47.405Z,6.30
2019-03-01T04:13:08.290Z,5.87
2019-03-01T04:17:29.043Z,5.57
2019-03-01T04:21:49.791Z,5.97
2019-03-01T04:25:50.694Z,4.83
2019-03-01T04:30:12.715Z,5.67
2019-03-01T04:34:33.556Z,5.83
2019-03-01T04:38:47.494Z,6.50
2019-03-01T04:43:01.580Z,5.53
2019-03-01T04:47:15.436Z,5.47
2019-03-01T04:51:30.219Z,5.77
2019-03-01T04:55:44.786Z,5.60
2019-03-01T04:59:45.672Z,5.80
2019-03-01T05:04:20.437Z,4.60
2019-03-01T05:08:29.176Z,5.80
2019-03-01T05:12:50.140Z,6.00
2019-03-01T05:17:10.876Z,4.93
2019-03-01T05:21:31.877Z,6.43
2019-03-01T05:25:52.623Z,4.33
2019-03-01T05:30:33.316Z,5.70
2019-03-01T05:34:54.352Z,5.33
2019-03-01T05:39:08.546Z,3.23
2019-03-01T05:43:27.239Z,5.30
2019-03-01T05:47:41.982Z,5.13
2019-03-01T05:52:00.407Z,4.10
2019-03-01T05:56:18.767Z,4.20
2019-03-01T06:00:33.550Z,4.67
2019-03-01T06:04:47.926Z,5.40
2019-03-01T06:09:28.654Z,4.40
2019-03-01T06:14:11.187Z,4.87
2019-03-01T06:18:51.772Z,4.47
2019-03-01T06:23:32.361Z,4.77
2019-03-01T06:28:13.011Z,4.57
2019-03-01T06:32:54.002Z,5.07
2019-03-01T06:37:08.463Z,4.37
2019-03-01T06:41:25.044Z,4.10
2019-03-01T06:45:39.817Z,4.60
2019-03-01T06:49:59.018Z,5.50
2019-03-01T06:54:13.224Z,4.13
2019-03-01T06:58:27.794Z,3.93
2019-03-01T07:02:44.174Z,4.07
2019-03-01T07:06:58.894Z,4.33
2019-03-01T07:11:13.237Z,4.37
2019-03-01T07:15:27.718Z,4.70
2019-03-01T07:19:42.462Z,4.60
2019-03-01T07:23:57.029Z,4.33
2019-03-01T07:28:11.471Z,4.40
2019-03-01T07:32:26.066Z,5.70
2019-03-01T07:36:40.743Z,5.07
2019-03-01T07:40:55.366Z,5.63
2019-03-01T07:45:09.839Z,5.67
2019-03-01T07:49:24.599Z,5.17
2019-03-01T07:53:41.805Z,5.10
2019-03-01T07:57:55.328Z,4.80
2019-03-01T08:02:09.925Z,4.00
2019-03-01T08:06:24.456Z,4.80
2019-03-01T08:10:38.799Z,4.67
2019-03-01T08:14:53.444Z,3.97
2019-03-01T08:19:08.221Z,4.47
2019-03-01T08:23:22.855Z,5.30
2019-03-01T08:27:37.264Z,3.40
2019-03-01T08:31:52.830Z,2.97
2019-03-01T08:36:08.149Z,3.27
2019-03-01T08:40:21.902Z,3.97
2019-03-01T08:44:36.554Z,3.67
2019-03-01T08:48:51.169Z,5.20
2019-03-01T08:53:05.705Z,7.00
2019-03-01T08:57:22.676Z,5.10
2019-03-01T09:01:35.880Z,3.20
2019-03-01T09:05:50.350Z,3.13
2019-03-01T09:10:05.208Z,3.80
2019-03-01T09:14:22.751Z,3.93
2019-03-01T09:18:38.922Z,4.17
2019-03-01T09:22:53.820Z,4.97
2019-03-01T09:27:08.550Z,4.77
2019-03-01T09:31:09.549Z,6.50
2019-03-01T09:39:53.650Z,7.10
2019-03-01T09:44:08.583Z,8.97
2019-03-01T09:48:23.210Z,8.43
2019-03-01T09:52:37.729Z,10.23
2019-03-01T09:56:52.351Z,9.30
2019-03-01T10:01:06.885Z,8.73
2019-03-01T10:05:20.584Z,8.67
2019-03-01T10:09:35.280Z,8.33
2019-03-01T10:13:49.871Z,6.97
2019-03-01T10:18:04.380Z,6.27
2019-03-01T10:22:18.965Z,6.63
2019-03-01T10:26:33.630Z,5.87
2019-03-01T10:30:48.133Z,6.60
2019-03-01T10:35:02.817Z,5.90
2019-03-01T10:39:45.367Z,5.93
2019-03-01T10:44:06.262Z,7.80
2019-03-01T10:48:07.316Z,6.93
2019-03-01T10:52:28.154Z,6.93
2019-03-01T10:56:48.923Z,5.87
2019-03-01T11:01:09.764Z,6.67
2019-03-01T11:05:30.651Z,6.97
2019-03-01T11:09:51.479Z,7.33
2019-03-01T11:14:12.400Z,6.67
2019-03-01T11:18:33.168Z,5.67
2019-03-01T11:22:53.899Z,6.33
2019-03-01T11:27:14.739Z,6.47
2019-03-01T11:31:35.587Z,8.33
2019-03-01T11:35:56.384Z,6.70
2019-03-01T11:40:10.413Z,8.70
2019-03-01T11:44:24.775Z,8.17
2019-03-01T11:48:39.162Z,9.47
2019-03-01T11:52:53.566Z,12.40
2019-03-01T11:57:08.294Z,13.37
2019-03-01T12:01:22.762Z,13.60
2019-03-01T12:05:37.435Z,13.53
2019-03-01T12:09:38.973Z,15.50
2019-03-01T12:13:59.990Z,17.77
2019-03-01T12:18:20.732Z,21.70
2019-03-01T12:22:41.595Z,29.47
2019-03-01T12:27:02.929Z,32.17
2019-03-01T12:31:46.122Z,38.83
2019-03-01T12:40:41.365Z,47.50
2019-03-01T12:44:56.225Z,58.03
2019-03-01T12:49:13.151Z,60.37
2019-03-01T12:53:29.601Z,65.30
2019-03-01T12:57:44.572Z,63.20
2019-03-01T13:02:00.972Z,66.70
2019-03-01T13:06:15.682Z,72.23
2019-03-01T13:10:30.188Z,71.87
2019-03-01T13:14:44.833Z,71.70
2019-03-01T13:18:59.073Z,75.03
2019-03-01T13:23:01.025Z,78.97
2019-03-01T13:27:22.964Z,72.90
2019-03-01T13:31:43.948Z,75.67
2019-03-01T13:36:05.200Z,77.17
2019-03-01T13:40:20.939Z,77.47
2019-03-01T13:44:36.065Z,81.87
2019-03-01T13:48:54.096Z,86.13
2019-03-01T13:53:08.858Z,85.17
2019-03-01T13:57:23.139Z,80.03
2019-03-01T14:01:37.882Z,80.03
2019-03-01T14:05:54.859Z,83.00
2019-03-01T14:10:09.470Z,80.53
2019-03-01T14:14:10.458Z,78.07
2019-03-01T14:18:11.450Z,74.13
2019-03-01T14:22:32.209Z,69.50
2019-03-01T14:26:53.918Z,70.37
2019-03-01T14:31:15.642Z,68.80
2019-03-01T14:35:36.573Z,72.87
2019-03-01T14:39:51.688Z,68.77
2019-03-01T14:44:06.436Z,58.87
2019-03-01T14:48:20.339Z,53.03
2019-03-01T14:52:34.937Z,50.33
2019-03-01T14:56:49.569Z,49.53
2019-03-01T15:01:04.177Z,47.07
2019-03-01T15:05:19.878Z,50.20
2019-03-01T15:09:34.467Z,49.13
2019-03-01T15:13:49.126Z,47.37
2019-03-01T15:18:03.612Z,45.03
2019-03-01T15:22:18.310Z,47.40
2019-03-01T15:26:32.863Z,45.40
2019-03-01T15:30:47.541Z,51.37
2019-03-01T15:35:03.909Z,50.17
2019-03-01T15:39:20.020Z,47.37
2019-03-01T15:43:34.902Z,50.80
2019-03-01T15:47:50.384Z,51.60
2019-03-01T15:52:05.342Z,51.50
2019-03-01T15:56:07.194Z,49.43
2019-03-01T16:00:30.318Z,53.33
2019-03-01T16:04:52.021Z,55.93
2019-03-01T16:09:13.580Z,53.80
2019-03-01T16:13:14.475Z,54.10
2019-03-01T16:17:35.242Z,55.33
2019-03-01T16:21:56.253Z,55.03
2019-03-01T16:26:17.005Z,52.17
2019-03-01T16:30:37.781Z,57.73
2019-03-01T16:34:58.635Z,50.73
2019-03-01T16:39:13.311Z,52.97
2019-03-01T16:43:28.639Z,52.00
2019-03-01T16:47:44.358Z,51.50
2019-03-01T16:51:58.823Z,52.87
2019-03-01T16:56:13.525Z,53.67
2019-03-01T17:00:27.969Z,48.10
2019-03-01T17:04:42.447Z,44.23
2019-03-01T17:08:43.472Z,45.37
2019-03-01T17:12:44.551Z,44.43
2019-03-01T17:16:45.429Z,37.73
2019-03-01T17:21:06.283Z,43.73
2019-03-01T17:25:27.737Z,38.30
2019-03-01T17:29:49.869Z,39.07
2019-03-01T17:33:50.832Z,36.67
2019-03-01T17:38:11.662Z,39.33
2019-03-01T17:42:32.603Z,37.97
2019-03-01T17:46:53.427Z,40.70
2019-03-01T17:51:14.289Z,49.33
2019-03-01T17:55:37.612Z,37.40
2019-03-01T17:59:57.737Z,82.77
2019-03-01T18:04:18.591Z,54.50
2019-03-01T18:08:19.565Z,45.73
2019-03-01T18:12:21.230Z,36.37
2019-03-01T18:16:43.266Z,38.47
2019-03-01T18:21:04.114Z,34.80
2019-03-01T18:25:26.151Z,30.63
2019-03-01T18:29:47.515Z,29.97
2019-03-01T18:34:08.362Z,27.40
2019-03-01T18:38:09.460Z,28.30
2019-03-01T18:42:10.598Z,29.27
2019-03-01T18:46:14.666Z,23.07
2019-03-01T18:50:35.245Z,21.10
2019-03-01T18:54:56.071Z,24.03
2019-03-01T18:59:17.315Z,23.00
2019-03-01T19:03:41.471Z,24.97
2019-03-01T19:08:04.770Z,23.77
2019-03-01T19:12:05.574Z,24.23
2019-03-01T19:16:28.574Z,23.43
2019-03-01T19:21:09.091Z,27.47
2019-03-01T19:25:30.025Z,40.33
2019-03-01T19:29:50.915Z,52.47
2019-03-01T19:33:51.901Z,43.40
2019-03-01T19:38:12.875Z,49.10
2019-03-01T19:42:29.500Z,39.17
2019-03-01T19:46:44.111Z,37.90
2019-03-01T19:51:01.589Z,39.03
2019-03-01T19:55:14.940Z,35.27
2019-03-01T19:59:29.366Z,36.47
2019-03-01T20:03:45.441Z,32.77
2019-03-01T20:08:00.998Z,35.70
2019-03-01T20:12:15.715Z,35.73
2019-03-01T20:16:30.365Z,30.10
2019-03-01T20:20:44.924Z,29.87
2019-03-01T20:24:58.880Z,31.03
2019-03-01T20:29:12.825Z,29.93
2019-03-01T20:33:27.878Z,33.90
2019-03-01T20:37:42.409Z,35.10
2019-03-01T20:41:57.579Z,39.87
2019-03-01T20:46:12.102Z,52.63
2019-03-01T20:50:26.864Z,40.07
2019-03-01T20:54:41.446Z,34.70
2019-03-01T20:58:42.574Z,36.53
2019-03-01T21:03:03.420Z,39.17
2019-03-01T21:07:24.184Z,37.17
2019-03-01T21:11:45.059Z,38.53
2019-03-01T21:16:05.963Z,40.70
2019-03-01T21:20:26.883Z,43.30
2019-03-01T21:24:47.655Z,38.93
2019-03-01T21:29:08.989Z,39.70
2019-03-01T21:33:31.220Z,38.60
2019-03-01T21:37:34.722Z,43.53
2019-03-01T21:41:48.555Z,40.33
2019-03-01T21:46:02.444Z,39.37
2019-03-01T21:50:17.261Z,41.33
2019-03-01T21:54:32.330Z,42.67
2019-03-01T21:58:46.429Z,41.27
2019-03-01T22:02:48.939Z,39.87
2019-03-01T22:06:50.254Z,40.17
2019-03-01T22:10:51.269Z,38.90
2019-03-01T22:15:33.889Z,42.60
2019-03-01T22:19:54.814Z,38.37
2019-03-01T22:24:15.559Z,43.23
2019-03-01T22:28:37.072Z,42.43
2019-03-01T22:32:58.158Z,40.37
2019-03-01T22:37:18.904Z,41.47
2019-03-01T22:41:35.621Z,40.87
2019-03-01T22:45:49.714Z,42.80
2019-03-01T22:50:07.025Z,43.57
2019-03-01T22:54:20.749Z,42.10
2019-03-01T22:58:21.642Z,45.43
2019-03-01T23:02:44.384Z,41.87
2019-03-01T23:07:06.433Z,40.83
2019-03-01T23:11:28.653Z,41.47
2019-03-01T23:15:30.127Z,40.30
2019-03-01T23:19:51.693Z,44.03
2019-03-01T23:24:13.622Z,42.93
2019-03-01T23:28:34.362Z,41.20
2019-03-01T23:32:55.996Z,40.00
2019-03-01T23:37:17.782Z,43.77
2019-03-01T23:41:18.659Z,40.67
2019-03-01T23:45:39.517Z,38.60
2019-03-01T23:50:00.595Z,38.60
2019-03-01T23:54:21.491Z,37.63
2019-03-01T23:58:42.557Z,39.83
